Time;durP1;ratioP1;P1;durP2;ratioP2;P2;SDS_P1;SDS_P2;PMS_P1;PMS_P2;Temp;Humidity;BMP_temperature;BMP_pressure;BME280_temperature;BME280_humidity;BME280_pressure;Samples;Min_cycle;Max_cycle;Signal;HPM_P1;HPM_P2
2023/10/02 00:00:42;;;;;;;16.92;7.88;;;;;;;;;;4932730;29;20036;-61
2023/10/02 00:03:11;;;;;;;18.42;7.90;;;;;;;;;;4925229;29;20499;-61
2023/10/02 00:05:40;;;;;;;17.63;7.80;;;;;;;;;;4930688;29;20036;-61
2023/10/02 00:08:06;;;;;;;16.52;7.93;;;;;;;;;;4927003;29;20032;-61
2023/10/02 00:10:31;;;;;;;16.60;8.20;;;;;;;;;;4927053;29;20196;-61
2023/10/02 00:12:59;;;;;;;15.13;7.55;;;;;;;;;;4933011;29;20032;-61
2023/10/02 00:15:26;;;;;;;15.95;8.05;;;;;;;;;;4933961;29;20122;-61
2023/10/02 00:17:51;;;;;;;15.43;7.53;;;;;;;;;;4933618;29;20039;-61
2023/10/02 00:20:23;;;;;;;19.17;8.52;;;;;;;;;;4933426;29;20441;-61
2023/10/02 00:22:50;;;;;;;15.43;7.93;;;;;;;;;;4932966;29;20037;-61
2023/10/02 00:25:22;;;;;;;16.17;7.68;;;;;;;;;;4916501;29;20039;-60
2023/10/02 00:27:50;;;;;;;12.73;7.38;;;;;;;;;;4931915;29;20202;-60
2023/10/02 00:30:16;;;;;;;15.52;7.45;;;;;;;;;;4933013;29;20038;-60
2023/10/02 00:32:45;;;;;;;20.00;8.43;;;;;;;;;;4932179;29;20036;-60
2023/10/02 00:35:11;;;;;;;14.75;7.85;;;;;;;;;;4931741;29;20043;-60
2023/10/02 00:37:44;;;;;;;16.48;8.43;;;;;;;;;;4932820;29;20027;-60
2023/10/02 00:40:10;;;;;;;15.32;8.07;;;;;;;;;;4933699;29;20059;-60
2023/10/02 00:42:36;;;;;;;15.82;7.75;;;;;;;;;;4932015;29;20070;-60
2023/10/02 00:45:03;;;;;;;16.23;7.90;;;;;;;;;;4930682;29;20032;-60
2023/10/02 00:47:41;;;;;;;15.07;7.85;;;;;;;;;;4934637;29;20039;-60
2023/10/02 00:50:17;;;;;;;16.13;8.02;;;;;;;;;;4930731;29;20032;-60
2023/10/02 00:52:44;;;;;;;14.82;7.80;;;;;;;;;;4923537;29;20087;-60
2023/10/02 00:55:15;;;;;;;15.48;7.95;;;;;;;;;;4936097;29;20103;-60
2023/10/02 00:57:41;;;;;;;15.82;8.20;;;;;;;;;;4932528;29;20473;-60
2023/10/02 01:00:19;;;;;;;19.23;8.80;;;;;;;;;;4932559;29;20473;-60
2023/10/02 01:02:57;;;;;;;16.08;8.10;;;;;;;;;;4932989;29;20050;-60
2023/10/02 01:05:30;;;;;;;16.48;7.70;;;;;;;;;;4930905;29;20420;-60
2023/10/02 01:07:57;;;;;;;17.73;7.75;;;;;;;;;;4930105;29;20051;-61
2023/10/02 01:10:29;;;;;;;17.58;8.20;;;;;;;;;;4931578;29;20059;-61
2023/10/02 01:13:01;;;;;;;16.17;8.00;;;;;;;;;;4929711;29;20123;-60
2023/10/02 01:15:28;;;;;;;18.02;8.43;;;;;;;;;;4915055;29;20544;-60
2023/10/02 01:17:56;;;;;;;18.38;8.95;;;;;;;;;;4929863;29;20269;-60
2023/10/02 01:20:39;;;;;;;17.77;8.57;;;;;;;;;;4933417;29;20529;-60
2023/10/02 01:23:17;;;;;;;16.65;8.43;;;;;;;;;;4933828;29;20423;-60
2023/10/02 01:25:47;;;;;;;18.10;8.05;;;;;;;;;;4930172;29;20056;-60
2023/10/02 01:28:20;;;;;;;17.02;8.63;;;;;;;;;;4915433;29;20118;-63
2023/10/02 01:30:47;;;;;;;18.02;8.18;;;;;;;;;;4921042;29;20047;-60
2023/10/02 01:33:26;;;;;;;21.23;8.23;;;;;;;;;;4933589;29;20118;-61
2023/10/02 01:35:56;;;;;;;18.05;8.48;;;;;;;;;;4915017;29;20264;-61
2023/10/02 01:38:29;;;;;;;17.48;7.85;;;;;;;;;;4931569;29;20143;-61
2023/10/02 01:41:03;;;;;;;17.73;8.30;;;;;;;;;;4932816;29;20036;-61
2023/10/02 01:43:36;;;;;;;17.83;8.15;;;;;;;;;;4931584;29;20498;-60
2023/10/02 01:46:03;;;;;;;16.25;7.95;;;;;;;;;;4933371;29;20038;-61
2023/10/02 01:48:39;;;;;;;16.67;8.00;;;;;;;;;;4931413;29;20043;-60
2023/10/02 01:51:20;;;;;;;18.63;8.45;;;;;;;;;;4915462;29;20499;-60
2023/10/02 01:53:50;;;;;;;21.25;9.40;;;;;;;;;;4932024;29;20045;-60
2023/10/02 01:56:17;;;;;;;18.83;8.35;;;;;;;;;;4930780;29;20492;-61
2023/10/02 01:58:44;;;;;;;18.17;7.72;;;;;;;;;;4932767;29;20544;-60
2023/10/02 02:01:10;;;;;;;17.02;8.10;;;;;;;;;;4934195;29;20091;-61
2023/10/02 02:03:46;;;;;;;16.02;7.90;;;;;;;;;;4936465;29;20035;-60
2023/10/02 02:06:16;;;;;;;16.50;8.00;;;;;;;;;;4936575;29;20189;-60
2023/10/02 02:08:47;;;;;;;17.45;8.70;;;;;;;;;;4934312;29;20118;-61
2023/10/02 02:11:20;;;;;;;17.65;8.15;;;;;;;;;;4917859;29;20043;-59
2023/10/02 02:13:53;;;;;;;17.50;8.30;;;;;;;;;;4934907;29;20059;-61
2023/10/02 02:16:22;;;;;;;17.52;8.30;;;;;;;;;;4936252;29;20039;-60
2023/10/02 02:18:54;;;;;;;19.88;8.23;;;;;;;;;;4918329;29;20475;-61
2023/10/02 02:21:24;;;;;;;19.70;8.35;;;;;;;;;;4935756;29;20027;-60
2023/10/02 02:24:08;;;;;;;16.52;8.57;;;;;;;;;;4934296;29;20075;-60
2023/10/02 02:26:36;;;;;;;18.08;8.48;;;;;;;;;;4934929;29;20055;-60
2023/10/02 02:29:02;;;;;;;18.92;8.45;;;;;;;;;;4935642;29;20536;-60
2023/10/02 02:31:29;;;;;;;17.50;7.80;;;;;;;;;;4936674;29;20038;-60
2023/10/02 02:34:02;;;;;;;16.85;8.63;;;;;;;;;;4934745;29;20512;-60
2023/10/02 02:36:34;;;;;;;16.80;8.40;;;;;;;;;;4934837;29;20040;-61
2023/10/02 02:44:46;;;;;;;16.58;8.45;;;;;;;;;;4934754;29;20206;-60
2023/10/02 02:47:14;;;;;;;15.43;8.20;;;;;;;;;;4933159;29;20035;-61
2023/10/02 02:49:51;;;;;;;14.82;7.97;;;;;;;;;;4934614;29;20465;-60
2023/10/02 02:52:26;;;;;;;14.07;7.82;;;;;;;;;;4921687;29;20038;-60
2023/10/02 02:54:59;;;;;;;16.33;7.85;;;;;;;;;;4924711;29;20058;-59
2023/10/02 02:57:30;;;;;;;18.73;8.35;;;;;;;;;;4934553;29;20042;-59
2023/10/02 03:02:46;;;;;;;17.17;8.40;;;;;;;;;;4937433;29;20149;-60
2023/10/02 03:05:12;;;;;;;18.20;8.27;;;;;;;;;;4930531;29;20729;-60
2023/10/02 03:07:42;;;;;;;16.85;8.13;;;;;;;;;;4935608;29;20492;-60
2023/10/02 03:10:11;;;;;;;17.33;8.38;;;;;;;;;;4934721;29;20058;-60
2023/10/02 03:12:47;;;;;;;14.30;7.57;;;;;;;;;;4932114;29;20043;-60
2023/10/02 03:15:18;;;;;;;16.27;7.88;;;;;;;;;;4934556;29;20086;-61
2023/10/02 03:17:49;;;;;;;17.50;8.45;;;;;;;;;;4933105;29;20083;-59
2023/10/02 03:20:24;;;;;;;17.30;7.97;;;;;;;;;;4938304;29;20039;-60
2023/10/02 03:22:57;;;;;;;16.98;8.30;;;;;;;;;;4925462;29;20035;-60
2023/10/02 03:25:40;;;;;;;16.73;8.07;;;;;;;;;;4934590;29;20035;-60
2023/10/02 03:28:16;;;;;;;15.45;7.85;;;;;;;;;;4934533;29;20456;-60
2023/10/02 03:30:43;;;;;;;15.10;7.72;;;;;;;;;;4934458;29;20055;-60
2023/10/02 03:33:18;;;;;;;14.68;7.35;;;;;;;;;;4935161;29;20449;-60
2023/10/02 03:35:58;;;;;;;19.63;8.57;;;;;;;;;;4933509;29;20031;-60
2023/10/02 03:38:26;;;;;;;16.67;7.57;;;;;;;;;;4923543;29;20402;-60
2023/10/02 03:40:59;;;;;;;15.05;7.72;;;;;;;;;;4933986;29;20162;-60
2023/10/02 03:43:35;;;;;;;15.40;7.63;;;;;;;;;;4933562;29;20031;-61
2023/10/02 03:46:04;;;;;;;19.95;8.80;;;;;;;;;;4932852;29;20035;-60
2023/10/02 03:48:29;;;;;;;17.30;7.72;;;;;;;;;;4933126;29;20027;-61
2023/10/02 03:50:56;;;;;;;15.88;8.30;;;;;;;;;;4932360;29;20042;-61
2023/10/02 03:53:28;;;;;;;15.95;8.25;;;;;;;;;;4927472;29;20111;-61
2023/10/02 03:58:53;;;;;;;18.20;8.85;;;;;;;;;;4927766;29;20074;-60
2023/10/02 04:01:29;;;;;;;17.77;8.18;;;;;;;;;;4929452;29;20055;-61
2023/10/02 04:06:42;;;;;;;18.45;8.27;;;;;;;;;;4926784;29;20548;-60
2023/10/02 04:11:39;;;;;;;16.80;8.02;;;;;;;;;;4927593;29;21908;-61
2023/10/02 04:14:17;;;;;;;21.58;8.50;;;;;;;;;;4927249;29;20468;-61
2023/10/02 04:16:52;;;;;;;18.10;7.78;;;;;;;;;;4934652;29;20086;-60
2023/10/02 04:19:23;;;;;;;15.95;7.40;;;;;;;;;;4935508;29;20067;-60
2023/10/02 04:21:53;;;;;;;17.40;8.32;;;;;;;;;;4927195;29;20048;-60
2023/10/02 04:24:23;;;;;;;19.58;8.70;;;;;;;;;;4937409;28;20024;-60
2023/10/02 04:26:54;;;;;;;17.23;8.15;;;;;;;;;;4941545;29;20034;-60
2023/10/02 04:29:26;;;;;;;17.13;7.85;;;;;;;;;;4942238;29;20123;-61
2023/10/02 04:32:12;;;;;;;16.25;7.70;;;;;;;;;;4939707;29;20336;-61
2023/10/02 04:34:46;;;;;;;18.85;8.10;;;;;;;;;;4953587;29;20039;-61
2023/10/02 04:37:22;;;;;;;16.92;8.45;;;;;;;;;;4953600;29;20043;-60
2023/10/02 04:39:54;;;;;;;17.75;8.02;;;;;;;;;;4946555;29;20090;-60
2023/10/02 04:42:21;;;;;;;16.60;7.72;;;;;;;;;;4944355;29;20031;-60
2023/10/02 04:44:56;;;;;;;16.40;7.57;;;;;;;;;;4937103;29;20514;-61
2023/10/02 04:47:23;;;;;;;15.07;7.60;;;;;;;;;;4933819;29;20039;-61
2023/10/02 04:55:25;;;;;;;16.67;7.53;;;;;;;;;;4932742;29;20074;-61
2023/10/02 04:58:19;;;;;;;15.00;7.35;;;;;;;;;;4934420;29;20043;-61
2023/10/02 05:03:36;;;;;;;16.45;7.53;;;;;;;;;;4938119;29;20393;-61
2023/10/02 05:06:03;;;;;;;14.43;6.82;;;;;;;;;;4916086;29;20064;-61
2023/10/02 05:11:11;;;;;;;15.82;7.43;;;;;;;;;;4931624;29;20465;-63
2023/10/02 05:13:45;;;;;;;15.40;7.32;;;;;;;;;;4934763;29;20040;-61
2023/10/02 05:16:14;;;;;;;16.48;7.80;;;;;;;;;;4917860;29;20042;-61
2023/10/02 05:18:51;;;;;;;19.55;8.45;;;;;;;;;;4928024;29;20397;-61
2023/10/02 05:21:17;;;;;;;16.92;7.90;;;;;;;;;;4933226;29;20043;-61
2023/10/02 05:24:02;;;;;;;19.73;8.82;;;;;;;;;;4934320;29;20028;-61
2023/10/02 05:26:34;;;;;;;18.13;8.38;;;;;;;;;;4939618;29;20489;-61
2023/10/02 05:29:00;;;;;;;17.90;8.40;;;;;;;;;;4952072;29;20114;-61
2023/10/02 05:31:28;;;;;;;15.95;7.75;;;;;;;;;;4924002;29;20095;-61
2023/10/02 05:33:57;;;;;;;19.30;8.40;;;;;;;;;;4932911;29;20366;-65
2023/10/02 05:36:23;;;;;;;17.77;8.00;;;;;;;;;;4943883;28;20397;-61
2023/10/02 05:41:46;;;;;;;18.45;8.15;;;;;;;;;;4940461;29;20046;-60
2023/10/02 05:44:23;;;;;;;15.88;8.23;;;;;;;;;;4953657;29;20035;-59
2023/10/02 05:46:55;;;;;;;16.77;7.93;;;;;;;;;;4944892;29;20031;-60
2023/10/02 05:49:27;;;;;;;19.77;8.73;;;;;;;;;;4946303;29;20535;-59
2023/10/02 05:51:55;;;;;;;16.17;8.02;;;;;;;;;;4947153;29;20043;-60
2023/10/02 05:54:29;;;;;;;18.40;8.25;;;;;;;;;;4919416;29;20115;-59
2023/10/02 05:57:08;;;;;;;17.50;7.75;;;;;;;;;;4936659;29;20429;-60
2023/10/02 05:59:48;;;;;;;17.48;8.02;;;;;;;;;;4936903;29;20110;-59
2023/10/02 06:02:15;;;;;;;17.67;7.95;;;;;;;;;;4936521;29;20115;-59
2023/10/02 06:04:43;;;;;;;19.45;8.10;;;;;;;;;;4946662;29;20079;-59
2023/10/02 06:07:11;;;;;;;17.13;7.70;;;;;;;;;;4945496;29;20111;-59
2023/10/02 06:09:46;;;;;;;19.60;8.55;;;;;;;;;;4920564;29;20051;-60
2023/10/02 06:12:12;;;;;;;18.73;8.52;;;;;;;;;;4919634;29;20107;-59
2023/10/02 06:14:39;;;;;;;20.52;9.60;;;;;;;;;;4925599;29;20435;-57
2023/10/02 06:17:11;;;;;;;17.83;8.40;;;;;;;;;;4946956;29;20043;-59
2023/10/02 06:19:42;;;;;;;18.52;8.60;;;;;;;;;;4929173;29;20175;-59
2023/10/02 06:22:09;;;;;;;18.08;8.32;;;;;;;;;;4941035;29;20826;-59
2023/10/02 06:24:35;;;;;;;18.27;8.18;;;;;;;;;;4955706;29;20042;-59
2023/10/02 06:27:12;;;;;;;19.73;8.73;;;;;;;;;;4954117;29;20046;-59
2023/10/02 06:29:38;;;;;;;18.35;8.38;;;;;;;;;;4924138;29;20059;-59
2023/10/02 06:32:11;;;;;;;14.52;7.70;;;;;;;;;;4935258;29;20485;-59
2023/10/02 06:34:38;;;;;;;16.50;7.32;;;;;;;;;;4941473;29;20038;-59
2023/10/02 06:37:07;;;;;;;19.13;8.60;;;;;;;;;;4939148;29;20036;-59
2023/10/02 06:39:36;;;;;;;17.23;8.73;;;;;;;;;;4934323;29;20039;-59
2023/10/02 06:42:06;;;;;;;20.48;8.43;;;;;;;;;;4935922;29;20031;-59
2023/10/02 06:44:41;;;;;;;;;;;;;;;;;;4919112;29;20064;-59
2023/10/02 06:47:13;;;;;;;17.27;7.95;;;;;;;;;;4939535;29;19961;-60
2023/10/02 06:49:44;;;;;;;17.88;8.77;;;;;;;;;;4939060;29;20035;-58
2023/10/02 06:52:16;;;;;;;21.25;9.07;;;;;;;;;;4952328;29;20182;-59
2023/10/02 06:54:49;;;;;;;21.02;8.23;;;;;;;;;;4923965;29;20106;-59
2023/10/02 06:57:20;;;;;;;18.40;8.32;;;;;;;;;;4935482;29;20440;-60
2023/10/02 06:59:53;;;;;;;18.95;8.55;;;;;;;;;;4942169;29;20122;-59
2023/10/02 07:02:21;;;;;;;16.42;7.50;;;;;;;;;;4944025;29;20035;-59
2023/10/02 07:04:48;;;;;;;17.00;8.25;;;;;;;;;;4935764;29;20039;-59
2023/10/02 07:07:21;;;;;;;18.48;7.93;;;;;;;;;;4935842;29;20066;-61
2023/10/02 07:09:48;;;;;;;18.40;8.43;;;;;;;;;;4922001;29;20059;-60
2023/10/02 07:12:14;;;;;;;16.75;8.15;;;;;;;;;;4952426;29;20066;-60
2023/10/02 07:14:41;;;;;;;18.45;7.88;;;;;;;;;;4951052;29;20066;-59
2023/10/02 07:17:16;;;;;;;18.48;8.70;;;;;;;;;;4922628;29;20098;-59
2023/10/02 07:19:50;;;;;;;18.75;8.23;;;;;;;;;;4938020;29;20063;-59
2023/10/02 07:22:24;;;;;;;17.67;7.82;;;;;;;;;;4949320;29;20138;-60
2023/10/02 07:24:55;;;;;;;15.70;7.57;;;;;;;;;;4944680;29;20465;-59
2023/10/02 07:27:26;;;;;;;16.58;8.15;;;;;;;;;;4938257;29;20043;-59
2023/10/02 07:29:53;;;;;;;20.30;7.85;;;;;;;;;;4941608;29;20031;-60
2023/10/02 07:32:25;;;;;;;18.55;7.80;;;;;;;;;;4935678;29;20066;-60
2023/10/02 07:34:52;;;;;;;19.30;8.38;;;;;;;;;;4954113;29;20451;-59
2023/10/02 07:37:21;;;;;;;20.58;8.02;;;;;;;;;;4935643;29;20044;-60
2023/10/02 07:39:56;;;;;;;17.77;8.23;;;;;;;;;;4946173;29;20059;-63
2023/10/02 07:42:28;;;;;;;18.25;8.10;;;;;;;;;;4935979;29;20083;-60
2023/10/02 07:44:56;;;;;;;16.48;7.45;;;;;;;;;;4951863;29;20065;-60
2023/10/02 07:47:22;;;;;;;17.60;8.27;;;;;;;;;;4955027;29;20476;-60
2023/10/02 07:49:55;;;;;;;19.98;8.02;;;;;;;;;;4954321;29;20063;-59
2023/10/02 07:52:29;;;;;;;16.02;7.57;;;;;;;;;;4951302;29;20032;-60
2023/10/02 07:54:59;;;;;;;17.55;7.75;;;;;;;;;;4918038;29;20035;-60
2023/10/02 07:57:32;;;;;;;20.05;8.10;;;;;;;;;;4916493;29;20036;-60
2023/10/02 08:00:00;;;;;;;16.92;8.30;;;;;;;;;;4915482;29;20031;-60
2023/10/02 08:02:30;;;;;;;17.60;8.02;;;;;;;;;;4915988;29;20111;-60
2023/10/02 08:04:59;;;;;;;17.37;7.83;;;;;;;;;;4916121;29;20110;-60
2023/10/02 08:07:25;;;;;;;16.02;7.88;;;;;;;;;;4916723;29;20087;-60
2023/10/02 08:09:52;;;;;;;18.88;7.85;;;;;;;;;;4922274;29;20051;-59
2023/10/02 08:12:30;;;;;;;18.55;8.32;;;;;;;;;;4934370;29;20038;-59
2023/10/02 08:15:02;;;;;;;17.40;8.05;;;;;;;;;;4934820;29;20033;-60
2023/10/02 08:17:59;;;;;;;18.92;8.82;;;;;;;;;;4918200;29;20465;-60
2023/10/02 08:20:16;;;;;;;25.63;8.55;;;;;;;;;;4914872;29;20065;-59
2023/10/02 08:22:46;;;;;;;15.90;7.68;;;;;;;;;;4915903;29;20083;-60
2023/10/02 08:25:13;;;;;;;16.75;7.97;;;;;;;;;;4915039;29;20430;-60
2023/10/02 08:27:55;;;;;;;17.20;8.23;;;;;;;;;;4928804;29;20032;-59
2023/10/02 08:30:31;;;;;;;15.18;7.57;;;;;;;;;;4933853;29;20038;-59
2023/10/02 08:33:09;;;;;;;20.17;8.35;;;;;;;;;;4917258;29;20044;-60
2023/10/02 08:35:37;;;;;;;20.23;8.18;;;;;;;;;;4935036;29;20114;-60
2023/10/02 08:38:07;;;;;;;18.55;8.10;;;;;;;;;;4933911;29;20039;-60
2023/10/02 08:40:33;;;;;;;18.77;7.85;;;;;;;;;;4935018;29;20035;-59
2023/10/02 08:43:05;;;;;;;18.75;8.38;;;;;;;;;;4932780;29;20044;-59
2023/10/02 08:45:33;;;;;;;19.42;7.60;;;;;;;;;;4934851;29;20140;-59
2023/10/02 08:48:07;;;;;;;17.50;8.00;;;;;;;;;;4944323;29;20035;-59
2023/10/02 08:50:33;;;;;;;20.27;8.30;;;;;;;;;;4953224;29;20032;-59
2023/10/02 08:53:04;;;;;;;17.27;7.72;;;;;;;;;;4943488;29;20031;-60
2023/10/02 08:55:40;;;;;;;19.20;7.82;;;;;;;;;;4933910;29;20035;-59
2023/10/02 08:58:22;;;;;;;19.25;8.57;;;;;;;;;;4949173;29;20041;-59
2023/10/02 09:03:42;;;;;;;20.98;8.65;;;;;;;;;;4938495;29;20094;-61
2023/10/02 09:09:17;;;;;;;19.40;8.18;;;;;;;;;;4941878;29;20058;-59
2023/10/02 09:11:44;;;;;;;18.50;7.85;;;;;;;;;;4936632;29;20036;-59
2023/10/02 09:14:21;;;;;;;17.63;7.70;;;;;;;;;;4932594;29;20031;-59
2023/10/02 09:17:17;;;;;;;17.58;8.23;;;;;;;;;;4921587;29;20043;-60
2023/10/02 09:19:53;;;;;;;22.00;8.30;;;;;;;;;;4951027;29;20035;-59
2023/10/02 09:22:21;;;;;;;18.73;8.38;;;;;;;;;;4955029;29;20194;-59
2023/10/02 09:25:09;;;;;;;18.90;8.50;;;;;;;;;;4938655;29;20046;-59
2023/10/02 09:27:57;;;;;;;16.70;7.68;;;;;;;;;;4955970;29;20090;-59
2023/10/02 09:30:36;;;;;;;16.55;7.80;;;;;;;;;;4942410;29;20046;-59
2023/10/02 09:33:08;;;;;;;16.63;7.72;;;;;;;;;;4947627;29;20476;-59
2023/10/02 09:35:41;;;;;;;18.70;8.25;;;;;;;;;;4926065;29;20456;-60
2023/10/02 09:38:07;;;;;;;19.35;8.73;;;;;;;;;;4934277;29;20031;-59
2023/10/02 09:40:54;;;;;;;18.02;8.13;;;;;;;;;;4939893;29;20039;-59
2023/10/02 09:43:20;;;;;;;20.13;8.50;;;;;;;;;;4921082;29;20031;-59
2023/10/02 09:45:55;;;;;;;18.95;8.15;;;;;;;;;;4932576;29;20047;-62
2023/10/02 09:51:30;;;;;;;17.38;7.85;;;;;;;;;;4935735;29;20498;-60
2023/10/02 09:54:05;;;;;;;16.23;7.47;;;;;;;;;;4938086;29;20288;-59
2023/10/02 09:56:38;;;;;;;20.08;8.90;;;;;;;;;;4938590;29;20023;-60
2023/10/02 09:59:16;;;;;;;19.55;8.18;;;;;;;;;;4936793;29;20032;-60
2023/10/02 10:02:01;;;;;;;17.75;8.18;;;;;;;;;;4944338;29;20038;-59
2023/10/02 10:13:46;;;;;;;19.00;8.32;;;;;;;;;;4931582;29;20465;-60
2023/10/02 10:16:20;;;;;;;17.58;8.35;;;;;;;;;;4917153;29;20029;-59
2023/10/02 10:21:55;;;;;;;18.50;8.50;;;;;;;;;;4929516;29;20055;-58
2023/10/02 10:25:22;;;;;;;17.42;8.10;;;;;;;;;;4908508;29;20039;-61
2023/10/02 10:28:05;;;;;;;18.58;8.45;;;;;;;;;;4903164;29;20032;-60
2023/10/02 10:30:46;;;;;;;16.55;8.13;;;;;;;;;;4899129;29;20032;-55
2023/10/02 10:33:19;;;;;;;18.75;8.30;;;;;;;;;;4915961;29;20044;-51
2023/10/02 10:35:51;;;;;;;16.58;8.35;;;;;;;;;;4918020;29;20032;-51
2023/10/02 10:38:25;;;;;;;20.40;7.95;;;;;;;;;;4917137;29;20043;-56
2023/10/02 10:41:06;;;;;;;16.58;8.20;;;;;;;;;;4917930;29;20036;-60
2023/10/02 10:46:17;;;;;;;18.83;8.50;;;;;;;;;;4917170;29;20047;-56
2023/10/02 10:48:48;;;;;;;18.05;8.70;;;;;;;;;;4917727;29;20135;-56
2023/10/02 10:51:23;;;;;;;18.33;8.60;;;;;;;;;;4907744;29;20036;-53
2023/10/02 10:53:52;;;;;;;19.85;8.75;;;;;;;;;;4917681;29;20385;-56
2023/10/02 10:56:18;;;;;;;18.88;8.13;;;;;;;;;;4916412;29;20039;-55
2023/10/02 10:58:47;;;;;;;17.95;8.43;;;;;;;;;;4916428;29;20493;-57
2023/10/02 11:01:16;;;;;;;17.70;7.97;;;;;;;;;;4915360;29;20040;-56
2023/10/02 11:03:44;;;;;;;18.20;8.45;;;;;;;;;;4917470;29;20141;-56
2023/10/02 11:06:10;;;;;;;19.52;8.80;;;;;;;;;;4916563;29;20079;-57
2023/10/02 11:08:37;;;;;;;17.65;8.73;;;;;;;;;;4917438;29;20063;-57
2023/10/02 11:11:48;;;;;;;18.70;8.85;;;;;;;;;;4934540;29;20052;-57
2023/10/02 11:14:20;;;;;;;18.63;8.55;;;;;;;;;;4897418;29;20032;-57
2023/10/02 11:16:54;;;;;;;18.20;8.68;;;;;;;;;;4907280;29;20063;-56
2023/10/02 11:19:25;;;;;;;21.88;9.38;;;;;;;;;;4899354;29;20036;-55
2023/10/02 11:22:22;;;;;;;19.42;9.02;;;;;;;;;;4917508;29;20028;-57
2023/10/02 11:25:18;;;;;;;16.88;8.55;;;;;;;;;;4915817;29;20032;-57
2023/10/02 11:27:55;;;;;;;18.67;8.80;;;;;;;;;;4916065;29;20155;-57
2023/10/02 11:30:30;;;;;;;19.15;9.00;;;;;;;;;;4915640;29;20028;-56
2023/10/02 11:33:16;;;;;;;18.25;8.25;;;;;;;;;;4929684;29;20048;-56
2023/10/02 11:35:43;;;;;;;19.90;8.60;;;;;;;;;;4920732;29;20385;-57
2023/10/02 11:38:09;;;;;;;22.02;8.80;;;;;;;;;;4915978;29;20036;-55
2023/10/02 11:40:35;;;;;;;18.88;8.93;;;;;;;;;;4925055;29;20043;-57
2023/10/02 11:43:00;;;;;;;16.58;8.70;;;;;;;;;;4928900;29;20038;-57
2023/10/02 11:45:28;;;;;;;17.00;8.32;;;;;;;;;;4915205;29;20113;-57
2023/10/02 11:47:53;;;;;;;18.58;8.98;;;;;;;;;;4916691;29;20039;-57
2023/10/02 11:50:19;;;;;;;18.52;8.45;;;;;;;;;;4917795;29;20031;-56
2023/10/02 11:52:44;;;;;;;19.75;8.90;;;;;;;;;;4918503;29;20119;-56
2023/10/02 11:55:11;;;;;;;18.98;8.70;;;;;;;;;;4916529;29;20032;-54
2023/10/02 11:57:37;;;;;;;17.33;8.65;;;;;;;;;;4898063;29;20088;-57
2023/10/02 12:00:08;;;;;;;17.70;8.25;;;;;;;;;;4915607;29;20040;-56
2023/10/02 12:02:34;;;;;;;16.75;8.30;;;;;;;;;;4917036;29;20024;-56
2023/10/02 12:05:00;;;;;;;17.02;8.63;;;;;;;;;;4915840;29;20028;-57
2023/10/02 12:07:25;;;;;;;17.80;8.45;;;;;;;;;;4916133;29;20033;-56
2023/10/02 12:09:53;;;;;;;17.38;8.00;;;;;;;;;;4927441;29;20059;-57
2023/10/02 12:12:19;;;;;;;15.95;8.07;;;;;;;;;;4933871;29;20034;-57
2023/10/02 12:14:44;;;;;;;17.17;8.27;;;;;;;;;;4934839;29;20467;-55
2023/10/02 12:17:14;;;;;;;18.33;8.73;;;;;;;;;;4934428;29;20042;-56
2023/10/02 12:19:40;;;;;;;16.73;8.18;;;;;;;;;;4935107;29;20027;-57
2023/10/02 12:22:09;;;;;;;17.98;8.68;;;;;;;;;;4934590;29;20111;-57
2023/10/02 12:24:37;;;;;;;19.77;8.50;;;;;;;;;;4934089;29;20064;-57
2023/10/02 12:27:10;;;;;;;18.52;8.70;;;;;;;;;;4934537;29;20039;-56
2023/10/02 12:29:36;;;;;;;18.80;8.68;;;;;;;;;;4946991;29;20118;-57
2023/10/02 12:32:01;;;;;;;18.48;8.63;;;;;;;;;;4937807;29;20374;-57
2023/10/02 12:34:27;;;;;;;18.98;8.88;;;;;;;;;;4946786;29;20039;-56
2023/10/02 12:36:54;;;;;;;18.05;8.73;;;;;;;;;;4934576;29;20523;-57
2023/10/02 12:39:22;;;;;;;18.63;8.40;;;;;;;;;;4934020;29;20123;-57
2023/10/02 12:41:48;;;;;;;22.55;9.18;;;;;;;;;;4943178;29;20034;-56
2023/10/02 12:44:13;;;;;;;17.33;8.57;;;;;;;;;;4942928;29;20109;-57
2023/10/02 12:46:50;;;;;;;17.15;8.70;;;;;;;;;;4944287;28;20119;-58
2023/10/02 12:49:17;;;;;;;16.50;8.25;;;;;;;;;;4914947;29;20048;-56
2023/10/02 12:51:43;;;;;;;17.25;8.18;;;;;;;;;;4934532;29;20028;-57
2023/10/02 12:54:09;;;;;;;19.13;8.45;;;;;;;;;;4934284;29;20034;-56
2023/10/02 12:56:39;;;;;;;18.33;8.55;;;;;;;;;;4920247;29;20039;-54
2023/10/02 12:59:08;;;;;;;19.73;8.60;;;;;;;;;;4932623;29;20039;-55
2023/10/02 13:01:34;;;;;;;17.80;8.55;;;;;;;;;;4916572;29;20882;-57
2023/10/02 13:03:59;;;;;;;17.92;9.07;;;;;;;;;;4928550;29;20070;-56
2023/10/02 13:06:29;;;;;;;17.83;8.80;;;;;;;;;;4933257;29;20381;-56
2023/10/02 13:09:01;;;;;;;17.60;8.77;;;;;;;;;;4935426;29;20469;-55
2023/10/02 13:11:27;;;;;;;18.98;8.50;;;;;;;;;;4941277;29;20047;-56
2023/10/02 13:13:53;;;;;;;20.48;8.43;;;;;;;;;;4943747;29;20040;-57
2023/10/02 13:16:19;;;;;;;18.05;8.25;;;;;;;;;;4940364;29;20032;-57
2023/10/02 13:18:45;;;;;;;19.23;8.27;;;;;;;;;;4931931;29;20113;-55
2023/10/02 13:21:18;;;;;;;16.83;8.18;;;;;;;;;;4934043;29;20188;-54
2023/10/02 13:23:43;;;;;;;16.55;8.25;;;;;;;;;;4934414;29;20039;-55
2023/10/02 13:26:10;;;;;;;17.70;7.68;;;;;;;;;;4934061;29;20024;-57
2023/10/02 13:28:37;;;;;;;18.17;8.30;;;;;;;;;;4933831;29;20047;-57
2023/10/02 13:31:13;;;;;;;17.02;8.25;;;;;;;;;;4934253;29;20039;-56
2023/10/02 13:33:46;;;;;;;17.10;8.75;;;;;;;;;;4934132;29;20031;-57
2023/10/02 13:36:13;;;;;;;19.38;8.25;;;;;;;;;;4915250;29;20039;-56
2023/10/02 13:38:40;;;;;;;17.77;8.50;;;;;;;;;;4932650;29;20503;-57
2023/10/02 13:41:17;;;;;;;17.13;8.00;;;;;;;;;;4933862;29;20039;-58
2023/10/02 13:43:44;;;;;;;18.98;8.35;;;;;;;;;;4933715;29;20031;-57
2023/10/02 13:46:14;;;;;;;17.48;8.50;;;;;;;;;;4916555;29;20040;-57
2023/10/02 13:48:39;;;;;;;16.67;8.23;;;;;;;;;;4916594;29;20032;-57
2023/10/02 13:51:06;;;;;;;16.58;8.20;;;;;;;;;;4932627;29;20039;-54
2023/10/02 13:53:35;;;;;;;15.23;8.05;;;;;;;;;;4933288;29;20038;-56
2023/10/02 13:56:08;;;;;;;17.85;7.97;;;;;;;;;;4933641;29;20056;-57
2023/10/02 13:58:41;;;;;;;17.60;8.48;;;;;;;;;;4936387;29;20621;-57
2023/10/02 14:01:07;;;;;;;18.33;9.13;;;;;;;;;;4939157;29;20039;-55
2023/10/02 14:03:37;;;;;;;16.25;7.70;;;;;;;;;;4955533;29;20127;-58
2023/10/02 14:06:07;;;;;;;16.30;7.45;;;;;;;;;;4938481;29;20114;-56
2023/10/02 14:08:34;;;;;;;14.85;7.65;;;;;;;;;;4948678;29;20147;-57
2023/10/02 14:11:00;;;;;;;14.75;7.55;;;;;;;;;;4955935;28;20510;-58
2023/10/02 14:13:25;;;;;;;17.73;7.68;;;;;;;;;;4955477;29;20042;-58
2023/10/02 14:15:53;;;;;;;17.55;8.15;;;;;;;;;;4954870;29;20376;-57
2023/10/02 14:18:18;;;;;;;17.45;7.80;;;;;;;;;;4954412;29;20038;-57
2023/10/02 14:20:45;;;;;;;15.48;8.05;;;;;;;;;;4956264;29;20038;-58
2023/10/02 14:23:10;;;;;;;16.30;7.45;;;;;;;;;;4954074;29;20057;-57
2023/10/02 14:25:41;;;;;;;15.20;7.10;;;;;;;;;;4935933;29;20523;-58
2023/10/02 14:28:10;;;;;;;14.38;7.50;;;;;;;;;;4937014;29;20452;-57
2023/10/02 14:30:38;;;;;;;14.93;7.75;;;;;;;;;;4936267;29;20374;-57
2023/10/02 14:33:03;;;;;;;16.98;7.30;;;;;;;;;;4936792;29;20032;-58
2023/10/02 14:35:29;;;;;;;14.13;7.38;;;;;;;;;;4935679;29;20420;-58
2023/10/02 14:37:55;;;;;;;15.38;7.55;;;;;;;;;;4936675;29;20031;-58
2023/10/02 14:40:29;;;;;;;19.25;7.97;;;;;;;;;;4935312;29;20042;-58
2023/10/02 14:43:01;;;;;;;16.38;7.90;;;;;;;;;;4936876;29;20058;-57
2023/10/02 14:45:27;;;;;;;19.02;7.97;;;;;;;;;;4935897;29;20039;-57
2023/10/02 14:47:57;;;;;;;15.32;7.80;;;;;;;;;;4936748;29;20047;-56
2023/10/02 14:50:26;;;;;;;16.10;7.45;;;;;;;;;;4935909;29;20035;-58
2023/10/02 14:52:53;;;;;;;15.40;7.22;;;;;;;;;;4936559;29;20139;-61
2023/10/02 14:55:24;;;;;;;16.88;7.38;;;;;;;;;;4935713;29;20452;-56
2023/10/02 14:57:50;;;;;;;16.80;7.97;;;;;;;;;;4935316;29;20448;-57
2023/10/02 15:00:16;;;;;;;17.38;7.80;;;;;;;;;;4935975;29;20489;-57
2023/10/02 15:02:43;;;;;;;15.00;7.70;;;;;;;;;;4935808;29;20039;-57
2023/10/02 15:05:15;;;;;;;18.13;7.43;;;;;;;;;;4936235;29;20062;-57
2023/10/02 15:07:44;;;;;;;15.27;7.40;;;;;;;;;;4935337;29;20508;-56
2023/10/02 15:10:11;;;;;;;14.55;7.68;;;;;;;;;;4934663;29;20066;-55
2023/10/02 15:12:37;;;;;;;14.88;7.30;;;;;;;;;;4935424;29;20892;-56
2023/10/02 15:15:06;;;;;;;16.30;7.85;;;;;;;;;;4938403;29;20027;-56
2023/10/02 15:17:31;;;;;;;16.00;7.50;;;;;;;;;;4954729;29;20057;-57
2023/10/02 15:19:58;;;;;;;16.48;7.80;;;;;;;;;;4952857;29;20062;-57
2023/10/02 15:22:25;;;;;;;17.50;7.65;;;;;;;;;;4918140;29;20473;-56
2023/10/02 15:24:50;;;;;;;13.75;7.53;;;;;;;;;;4950533;29;20063;-57
2023/10/02 15:27:17;;;;;;;14.60;7.13;;;;;;;;;;4936273;29;20031;-57
2023/10/02 15:29:42;;;;;;;14.50;7.25;;;;;;;;;;4951875;29;20042;-58
2023/10/02 15:32:12;;;;;;;15.98;7.68;;;;;;;;;;4918243;29;20019;-56
2023/10/02 15:34:41;;;;;;;13.98;6.97;;;;;;;;;;4950409;29;20126;-57
2023/10/02 15:37:07;;;;;;;15.48;7.15;;;;;;;;;;4942494;29;20110;-58
2023/10/02 15:39:32;;;;;;;14.10;7.35;;;;;;;;;;4953684;29;20499;-57
2023/10/02 15:41:58;;;;;;;13.07;7.30;;;;;;;;;;4942926;29;20035;-57
2023/10/02 15:44:24;;;;;;;13.60;7.25;;;;;;;;;;4930106;29;20063;-57
2023/10/02 15:46:50;;;;;;;14.38;7.47;;;;;;;;;;4936484;29;20425;-57